Terminal Aerodrome Forecast
Issued by NWS

Home | Current Version | Previous Version | Text Only | Print | Product List | Glossary On
Versions: 1 2 3 4 5 6 7 8 9 10 11 12 13 14 15
000
FTUS43 KICT 221700
TAFCNU
TAF
KCNU 221720Z 2218/2318 16012KT P6SM BKN250
     FM230500 16007KT P6SM VCSH SCT025 OVC050
      TEMPO 2306/2310 5SM -SHRA BKN025
     FM231000 17007KT 5SM BR BKN008=

USA.gov is the U.S. government's official web portal to all federal, state and local government web resources and services.